Time;durP1;ratioP1;P1;durP2;ratioP2;P2;SDS_P1;SDS_P2;PMS_P1;PMS_P2;Temp;Humidity;BMP_temperature;BMP_pressure;BME280_temperature;BME280_humidity;BME280_pressure;Samples;Min_cycle;Max_cycle;Signal;HPM_P1;HPM_P2
2023/05/16 00:01:29;;;;;;;83.70;44.70;;;;;;;;;;5031343;28;20041;-63
2023/05/16 00:03:56;;;;;;;66.85;44.35;;;;;;;;;;5031666;28;20033;-64
2023/05/16 00:06:22;;;;;;;78.85;44.42;;;;;;;;;;5031092;28;20013;-60
2023/05/16 00:08:49;;;;;;;74.82;46.08;;;;;;;;;;5013251;28;20625;-62
2023/05/16 00:11:16;;;;;;;69.47;42.65;;;;;;;;;;5031550;28;20075;-65
2023/05/16 00:13:43;;;;;;;63.35;40.20;;;;;;;;;;5031330;28;20030;-64
2023/05/16 00:16:10;;;;;;;75.18;46.58;;;;;;;;;;5018063;28;20061;-59
2023/05/16 00:18:36;;;;;;;73.85;44.33;;;;;;;;;;5031351;28;20017;-58
2023/05/16 00:21:05;;;;;;;92.15;53.78;;;;;;;;;;5031281;28;20562;-58
2023/05/16 00:23:32;;;;;;;86.80;53.05;;;;;;;;;;5030802;28;20056;-61
2023/05/16 00:25:58;;;;;;;113.65;63.78;;;;;;;;;;5030976;28;20057;-58
2023/05/16 00:28:24;;;;;;;98.07;59.15;;;;;;;;;;5031565;28;20382;-64
2023/05/16 00:30:50;;;;;;;78.45;51.50;;;;;;;;;;5030978;28;20434;-58
2023/05/16 00:33:16;;;;;;;99.38;52.75;;;;;;;;;;5030780;28;20021;-58
2023/05/16 00:35:42;;;;;;;91.93;51.25;;;;;;;;;;5030761;28;20037;-58
2023/05/16 00:38:09;;;;;;;80.85;48.90;;;;;;;;;;5030595;28;20025;-58
2023/05/16 00:40:35;;;;;;;86.70;49.17;;;;;;;;;;5025309;28;20383;-59
2023/05/16 00:43:01;;;;;;;90.90;47.15;;;;;;;;;;5022508;28;20026;-59
2023/05/16 00:45:27;;;;;;;61.10;37.67;;;;;;;;;;5030615;28;20025;-59
2023/05/16 00:47:54;;;;;;;80.35;44.08;;;;;;;;;;5030808;28;20033;-63
2023/05/16 00:50:20;;;;;;;78.47;46.35;;;;;;;;;;5004866;28;20143;-61
2023/05/16 00:52:46;;;;;;;78.45;46.17;;;;;;;;;;5030192;28;20064;-59
2023/05/16 00:55:13;;;;;;;74.25;44.95;;;;;;;;;;5030469;28;20026;-64
2023/05/16 00:57:39;;;;;;;74.82;43.45;;;;;;;;;;5012230;28;20038;-59
2023/05/16 01:00:06;;;;;;;85.57;48.67;;;;;;;;;;5030587;28;20017;-65
2023/05/16 01:02:32;;;;;;;88.15;47.70;;;;;;;;;;5030142;28;20033;-63
2023/05/16 01:04:58;;;;;;;64.90;41.28;;;;;;;;;;5030343;28;20100;-58
2023/05/16 01:07:25;;;;;;;65.88;40.53;;;;;;;;;;5029032;28;20030;-58
2023/05/16 01:09:51;;;;;;;61.40;38.92;;;;;;;;;;5029588;28;20125;-58
2023/05/16 01:12:17;;;;;;;67.80;42.53;;;;;;;;;;5030302;28;20076;-59
2023/05/16 01:15:05;;;;;;;71.97;41.83;;;;;;;;;;5030490;28;20029;-59
2023/05/16 01:17:43;;;;;;;71.40;42.92;;;;;;;;;;5029936;28;20032;-58
2023/05/16 01:20:21;;;;;;;56.75;38.38;;;;;;;;;;5029648;28;20017;-58
2023/05/16 01:22:52;;;;;;;67.18;41.40;;;;;;;;;;5029712;28;20029;-62
2023/05/16 01:25:36;;;;;;;67.10;38.40;;;;;;;;;;5029935;28;20040;-58
2023/05/16 01:28:03;;;;;;;65.18;39.17;;;;;;;;;;5022594;28;20022;-59
2023/05/16 01:30:34;;;;;;;62.30;39.83;;;;;;;;;;5024188;28;20109;-58
2023/05/16 01:33:00;;;;;;;70.25;41.88;;;;;;;;;;5029463;28;20037;-60
2023/05/16 01:35:26;;;;;;;90.10;46.28;;;;;;;;;;5029589;28;20046;-59
2023/05/16 01:37:58;;;;;;;73.18;40.90;;;;;;;;;;5030204;28;20021;-58
2023/05/16 01:40:30;;;;;;;74.68;41.42;;;;;;;;;;5029549;28;20115;-59
2023/05/16 01:43:00;;;;;;;78.70;42.85;;;;;;;;;;5029801;28;20056;-59
2023/05/16 01:45:28;;;;;;;113.80;51.58;;;;;;;;;;5029053;28;20502;-62
2023/05/16 01:48:01;;;;;;;84.43;43.83;;;;;;;;;;5029681;28;20080;-58
2023/05/16 01:50:29;;;;;;;72.07;39.47;;;;;;;;;;5029458;28;20025;-58
2023/05/16 01:53:00;;;;;;;65.90;38.20;;;;;;;;;;5029568;28;20036;-58
2023/05/16 01:55:29;;;;;;;138.90;52.20;;;;;;;;;;5029403;28;20033;-58
2023/05/16 01:57:55;;;;;;;57.95;37.78;;;;;;;;;;5029393;28;20104;-58
2023/05/16 02:00:21;;;;;;;64.60;36.78;;;;;;;;;;5029432;28;20022;-58
2023/05/16 02:02:47;;;;;;;68.30;40.00;;;;;;;;;;5028941;28;20018;-58
2023/05/16 02:05:13;;;;;;;66.10;37.85;;;;;;;;;;5029034;28;20047;-59
2023/05/16 02:07:40;;;;;;;113.25;48.00;;;;;;;;;;5029304;28;20027;-59
2023/05/16 02:10:06;;;;;;;61.00;35.90;;;;;;;;;;5029436;28;20025;-58
2023/05/16 02:12:32;;;;;;;60.05;36.95;;;;;;;;;;5029349;28;20039;-60
2023/05/16 02:14:59;;;;;;;80.80;41.85;;;;;;;;;;5029037;28;20036;-59
2023/05/16 02:17:25;;;;;;;134.48;57.03;;;;;;;;;;5028824;28;20155;-58
2023/05/16 02:19:51;;;;;;;83.75;43.17;;;;;;;;;;5028561;28;20506;-61
2023/05/16 02:22:17;;;;;;;70.72;39.13;;;;;;;;;;5028977;28;20087;-57
2023/05/16 02:24:43;;;;;;;63.78;37.83;;;;;;;;;;5028805;28;20049;-58
2023/05/16 02:27:09;;;;;;;212.38;54.40;;;;;;;;;;5029193;28;20045;-59
2023/05/16 02:29:35;;;;;;;68.00;39.95;;;;;;;;;;5029266;28;20475;-58
2023/05/16 02:32:01;;;;;;;69.45;37.58;;;;;;;;;;5028900;28;20025;-58
2023/05/16 02:34:27;;;;;;;130.70;47.03;;;;;;;;;;5028956;28;20018;-58
2023/05/16 02:36:54;;;;;;;61.95;39.05;;;;;;;;;;5029080;28;20049;-62
2023/05/16 02:39:20;;;;;;;64.75;41.13;;;;;;;;;;5028595;28;20097;-57
2023/05/16 02:41:46;;;;;;;72.28;41.17;;;;;;;;;;5028990;28;20034;-63
2023/05/16 02:44:12;;;;;;;169.73;47.03;;;;;;;;;;5029013;28;20031;-57
2023/05/16 02:46:38;;;;;;;274.92;62.08;;;;;;;;;;5028688;28;20035;-58
2023/05/16 02:49:04;;;;;;;151.35;48.05;;;;;;;;;;5029134;28;20130;-57
2023/05/16 02:51:30;;;;;;;48.40;32.78;;;;;;;;;;5028317;28;20383;-61
2023/05/16 02:53:58;;;;;;;116.88;44.63;;;;;;;;;;5028619;28;20057;-58
2023/05/16 02:56:25;;;;;;;59.33;35.65;;;;;;;;;;5028953;28;20103;-58
2023/05/16 02:58:51;;;;;;;55.45;35.05;;;;;;;;;;5028359;28;20025;-58
2023/05/16 03:01:17;;;;;;;76.63;37.25;;;;;;;;;;5028559;28;20030;-58
2023/05/16 03:03:43;;;;;;;42.80;31.73;;;;;;;;;;5028809;28;20080;-58
2023/05/16 03:06:09;;;;;;;48.25;33.00;;;;;;;;;;5030100;28;20029;-59
2023/05/16 03:08:36;;;;;;;47.30;30.63;;;;;;;;;;5032743;28;20140;-58
2023/05/16 03:11:02;;;;;;;52.60;32.47;;;;;;;;;;5032420;28;20407;-63
2023/05/16 03:13:29;;;;;;;45.22;31.25;;;;;;;;;;5032604;28;20367;-64
2023/05/16 03:15:55;;;;;;;49.63;32.88;;;;;;;;;;5032094;28;20040;-59
2023/05/16 03:18:21;;;;;;;59.90;37.30;;;;;;;;;;5032292;28;20100;-60
2023/05/16 03:20:47;;;;;;;54.20;36.85;;;;;;;;;;5031996;28;20025;-58
2023/05/16 03:23:13;;;;;;;68.95;42.08;;;;;;;;;;5031908;28;20041;-58
2023/05/16 03:25:39;;;;;;;61.25;39.65;;;;;;;;;;5031847;28;20029;-60
2023/05/16 03:28:06;;;;;;;53.67;35.17;;;;;;;;;;5032833;28;20025;-59
2023/05/16 03:30:33;;;;;;;85.70;42.50;;;;;;;;;;5031816;28;20429;-58
2023/05/16 03:32:59;;;;;;;58.35;37.88;;;;;;;;;;5031900;28;20112;-62
2023/05/16 03:35:25;;;;;;;77.97;38.78;;;;;;;;;;5032288;28;20414;-58
2023/05/16 03:37:51;;;;;;;52.17;36.38;;;;;;;;;;5032063;28;20071;-64
2023/05/16 03:40:17;;;;;;;52.58;35.47;;;;;;;;;;5031661;28;20017;-58
2023/05/16 03:42:43;;;;;;;53.42;32.92;;;;;;;;;;5032349;28;20025;-60
2023/05/16 03:45:11;;;;;;;47.65;31.27;;;;;;;;;;5031483;28;20117;-59
2023/05/16 03:47:37;;;;;;;43.15;29.92;;;;;;;;;;5023917;28;20079;-58
2023/05/16 03:50:03;;;;;;;41.33;28.77;;;;;;;;;;5031538;28;20018;-64
2023/05/16 03:52:29;;;;;;;44.85;29.67;;;;;;;;;;5031787;28;20022;-58
2023/05/16 03:54:55;;;;;;;38.70;29.30;;;;;;;;;;5031323;28;20491;-57
2023/05/16 03:57:22;;;;;;;40.17;28.33;;;;;;;;;;5013560;28;20391;-57
2023/05/16 03:59:48;;;;;;;39.67;29.05;;;;;;;;;;5031245;28;20018;-63
2023/05/16 04:02:14;;;;;;;44.58;31.95;;;;;;;;;;5031339;28;20052;-58
2023/05/16 04:04:40;;;;;;;40.85;29.90;;;;;;;;;;5031428;28;20029;-62
2023/05/16 04:07:06;;;;;;;48.08;33.05;;;;;;;;;;5032133;28;20482;-61
2023/05/16 04:09:32;;;;;;;40.95;30.23;;;;;;;;;;5031523;28;20029;-62
2023/05/16 04:12:00;;;;;;;41.42;30.35;;;;;;;;;;5031489;28;20108;-61
2023/05/16 04:14:26;;;;;;;35.47;26.70;;;;;;;;;;5030832;28;20020;-59
2023/05/16 04:16:52;;;;;;;35.05;26.92;;;;;;;;;;5030903;28;20025;-63
2023/05/16 04:19:18;;;;;;;35.90;27.73;;;;;;;;;;5030560;28;20021;-58
2023/05/16 04:21:44;;;;;;;36.95;25.80;;;;;;;;;;5031645;28;20029;-59
2023/05/16 04:24:10;;;;;;;41.35;27.45;;;;;;;;;;5043691;28;20110;-58
2023/05/16 04:26:36;;;;;;;39.30;27.15;;;;;;;;;;5051189;28;20420;-58
2023/05/16 04:29:03;;;;;;;36.30;28.02;;;;;;;;;;5050925;28;20025;-65
2023/05/16 04:31:30;;;;;;;43.80;27.83;;;;;;;;;;5050607;28;20808;-58
2023/05/16 04:33:56;;;;;;;36.42;25.77;;;;;;;;;;5051000;28;20123;-58
2023/05/16 04:36:23;;;;;;;40.33;28.65;;;;;;;;;;5051125;28;20040;-63
2023/05/16 04:38:49;;;;;;;36.50;28.17;;;;;;;;;;5050232;28;20013;-63
2023/05/16 04:41:16;;;;;;;34.53;27.17;;;;;;;;;;5051173;28;20025;-63
2023/05/16 04:43:44;;;;;;;32.13;25.80;;;;;;;;;;5050874;28;20100;-62
2023/05/16 04:46:10;;;;;;;35.88;27.88;;;;;;;;;;5040238;28;20021;-58
2023/05/16 04:48:36;;;;;;;36.92;28.35;;;;;;;;;;5031895;28;20026;-59
2023/05/16 04:51:02;;;;;;;37.35;27.48;;;;;;;;;;5050821;28;20529;-57
2023/05/16 04:53:28;;;;;;;33.47;27.58;;;;;;;;;;5036332;28;20029;-58
2023/05/16 04:55:54;;;;;;;35.90;27.15;;;;;;;;;;5050236;28;20041;-58
2023/05/16 04:58:22;;;;;;;49.72;31.52;;;;;;;;;;5050165;28;20021;-57
2023/05/16 05:00:52;;;;;;;35.90;27.30;;;;;;;;;;5050058;28;20021;-59
2023/05/16 05:03:18;;;;;;;33.20;26.00;;;;;;;;;;5049916;28;20020;-58
2023/05/16 05:05:45;;;;;;;39.67;31.73;;;;;;;;;;5050723;28;20028;-58
2023/05/16 05:08:11;;;;;;;37.92;28.13;;;;;;;;;;5049634;28;20047;-63
2023/05/16 05:10:37;;;;;;;48.65;29.80;;;;;;;;;;5045738;28;20033;-62
2023/05/16 05:13:03;;;;;;;42.30;27.95;;;;;;;;;;5033689;28;20028;-60
2023/05/16 05:15:30;;;;;;;39.78;29.08;;;;;;;;;;5049591;28;20032;-61
2023/05/16 05:17:56;;;;;;;41.30;29.92;;;;;;;;;;5050221;28;20118;-59
2023/05/16 05:20:22;;;;;;;50.25;28.45;;;;;;;;;;5050315;28;20422;-58
2023/05/16 05:22:48;;;;;;;38.35;28.10;;;;;;;;;;5049423;28;20021;-59
2023/05/16 05:25:14;;;;;;;43.00;28.38;;;;;;;;;;5050073;28;20120;-58
2023/05/16 05:27:40;;;;;;;40.80;31.35;;;;;;;;;;5041485;28;20021;-58
2023/05/16 05:30:07;;;;;;;52.20;33.45;;;;;;;;;;5043443;28;20071;-59
2023/05/16 05:32:33;;;;;;;54.63;35.72;;;;;;;;;;5050259;28;20051;-58
2023/05/16 05:34:59;;;;;;;50.47;35.15;;;;;;;;;;5049227;28;20075;-58
2023/05/16 05:37:26;;;;;;;58.22;38.92;;;;;;;;;;5046408;28;20026;-58
2023/05/16 05:39:52;;;;;;;57.30;39.20;;;;;;;;;;5042808;28;20024;-58
2023/05/16 05:42:18;;;;;;;52.75;33.78;;;;;;;;;;5049287;28;20043;-58
2023/05/16 05:44:44;;;;;;;39.70;30.63;;;;;;;;;;5036297;28;20029;-60
2023/05/16 05:47:10;;;;;;;40.60;28.42;;;;;;;;;;5049423;28;20100;-58
2023/05/16 05:49:36;;;;;;;40.38;29.25;;;;;;;;;;5049593;28;20021;-58
2023/05/16 05:52:03;;;;;;;30.77;23.92;;;;;;;;;;5049540;28;20025;-64
2023/05/16 05:54:29;;;;;;;33.53;26.13;;;;;;;;;;5049017;28;20041;-59
2023/05/16 05:56:56;;;;;;;38.60;28.00;;;;;;;;;;5042421;28;20048;-58
2023/05/16 05:59:22;;;;;;;33.85;26.05;;;;;;;;;;5042416;28;20075;-58
2023/05/16 06:01:51;;;;;;;36.35;25.63;;;;;;;;;;5049191;28;20033;-58
2023/05/16 06:04:18;;;;;;;34.85;25.33;;;;;;;;;;5036233;28;20053;-58
2023/05/16 06:06:44;;;;;;;38.97;24.75;;;;;;;;;;5032437;28;20037;-58
2023/05/16 06:09:11;;;;;;;33.33;26.30;;;;;;;;;;5048935;28;20017;-59
2023/05/16 06:11:37;;;;;;;31.77;24.48;;;;;;;;;;5049371;28;20029;-58
2023/05/16 06:14:04;;;;;;;39.47;25.83;;;;;;;;;;5049464;28;20021;-57
2023/05/16 06:16:30;;;;;;;45.95;28.50;;;;;;;;;;5048517;28;20033;-58
2023/05/16 06:18:56;;;;;;;38.15;25.70;;;;;;;;;;5049454;28;20052;-58
2023/05/16 06:21:22;;;;;;;36.22;23.95;;;;;;;;;;5048878;28;20013;-57
2023/05/16 06:23:48;;;;;;;33.03;22.83;;;;;;;;;;5048426;28;20048;-58
2023/05/16 06:26:14;;;;;;;32.70;24.05;;;;;;;;;;5048980;28;20096;-58
2023/05/16 06:28:40;;;;;;;31.00;24.52;;;;;;;;;;5049191;28;20455;-59
2023/05/16 06:31:06;;;;;;;32.28;23.30;;;;;;;;;;5037798;28;20406;-59
2023/05/16 06:33:32;;;;;;;37.25;24.55;;;;;;;;;;5033044;28;20472;-57
2023/05/16 06:35:59;;;;;;;27.35;24.05;;;;;;;;;;5028907;28;20033;-57
2023/05/16 06:38:26;;;;;;;34.33;24.50;;;;;;;;;;5030832;28;20128;-59
2023/05/16 06:40:52;;;;;;;32.72;24.13;;;;;;;;;;5051509;28;20017;-57
2023/05/16 06:43:18;;;;;;;30.55;24.17;;;;;;;;;;5052421;28;20032;-58
2023/05/16 06:45:45;;;;;;;38.80;28.55;;;;;;;;;;5053065;28;20025;-57
2023/05/16 06:48:14;;;;;;;31.95;24.70;;;;;;;;;;5053180;28;20025;-58
2023/05/16 06:50:41;;;;;;;34.53;25.40;;;;;;;;;;5053116;28;20021;-57
2023/05/16 06:53:07;;;;;;;39.28;23.92;;;;;;;;;;5051633;28;20136;-58
2023/05/16 06:55:33;;;;;;;39.05;28.08;;;;;;;;;;5048279;28;20063;-57
2023/05/16 06:58:00;;;;;;;49.45;31.75;;;;;;;;;;5052409;28;20033;-58
2023/05/16 07:00:26;;;;;;;35.38;24.45;;;;;;;;;;5052654;28;20032;-58
2023/05/16 07:02:52;;;;;;;29.23;23.90;;;;;;;;;;5052580;28;20104;-57
2023/05/16 07:05:18;;;;;;;34.53;24.60;;;;;;;;;;5052047;28;20022;-58
2023/05/16 07:07:44;;;;;;;37.03;25.63;;;;;;;;;;5053026;28;20083;-58
2023/05/16 07:10:10;;;;;;;40.30;25.60;;;;;;;;;;5051739;28;20096;-58
2023/05/16 07:12:37;;;;;;;29.33;24.02;;;;;;;;;;5052926;28;20021;-57
2023/05/16 07:15:03;;;;;;;39.65;26.73;;;;;;;;;;5052418;28;20037;-58
2023/05/16 07:17:29;;;;;;;33.83;26.30;;;;;;;;;;5052370;28;20053;-58
2023/05/16 07:19:55;;;;;;;41.88;31.20;;;;;;;;;;5047618;28;20029;-59
2023/05/16 07:22:21;;;;;;;45.15;35.90;;;;;;;;;;5043469;28;20445;-58
2023/05/16 07:24:48;;;;;;;31.88;27.10;;;;;;;;;;5051701;28;20048;-58
2023/05/16 07:27:14;;;;;;;38.10;25.23;;;;;;;;;;5052723;28;20021;-59
2023/05/16 07:29:41;;;;;;;31.52;23.20;;;;;;;;;;5051983;28;20032;-62
2023/05/16 07:32:07;;;;;;;28.73;22.08;;;;;;;;;;5052075;28;20080;-59
2023/05/16 07:34:33;;;;;;;44.22;32.10;;;;;;;;;;5052195;28;20025;-58
2023/05/16 07:36:59;;;;;;;32.53;23.23;;;;;;;;;;5051671;28;20053;-68
2023/05/16 07:39:25;;;;;;;32.90;24.63;;;;;;;;;;5052514;28;20017;-58
2023/05/16 07:41:51;;;;;;;38.90;27.90;;;;;;;;;;5051631;28;20031;-59
2023/05/16 07:44:17;;;;;;;29.20;23.02;;;;;;;;;;5051833;28;20017;-63
2023/05/16 07:46:43;;;;;;;29.27;22.67;;;;;;;;;;5051652;28;20536;-70
2023/05/16 07:49:10;;;;;;;26.45;21.63;;;;;;;;;;5051598;28;20056;-60
2023/05/16 07:51:36;;;;;;;31.88;24.02;;;;;;;;;;5051290;28;20021;-58
2023/05/16 07:54:02;;;;;;;38.13;23.98;;;;;;;;;;5051844;28;20037;-64
2023/05/16 07:56:28;;;;;;;27.60;21.25;;;;;;;;;;5051440;28;20033;-65
2023/05/16 07:58:54;;;;;;;28.08;21.92;;;;;;;;;;5051078;28;20024;-62
2023/05/16 08:01:20;;;;;;;27.02;21.60;;;;;;;;;;5050618;28;20033;-59
2023/05/16 08:03:47;;;;;;;28.90;21.90;;;;;;;;;;5051474;28;20036;-60
2023/05/16 08:06:14;;;;;;;26.98;21.52;;;;;;;;;;5051527;28;20032;-60
2023/05/16 08:08:40;;;;;;;146.10;102.25;;;;;;;;;;5051486;28;20017;-62
2023/05/16 08:11:06;;;;;;;34.30;22.75;;;;;;;;;;5051090;28;20040;-63
2023/05/16 08:13:32;;;;;;;24.48;19.02;;;;;;;;;;5050506;28;20063;-59
2023/05/16 08:15:58;;;;;;;30.02;18.15;;;;;;;;;;5050991;28;20033;-62
2023/05/16 08:18:24;;;;;;;23.42;18.40;;;;;;;;;;5051598;28;20084;-61
2023/05/16 08:20:50;;;;;;;24.55;18.50;;;;;;;;;;5051131;28;20379;-66
2023/05/16 08:23:16;;;;;;;26.83;19.65;;;;;;;;;;5049806;28;20656;-63
2023/05/16 08:25:43;;;;;;;24.95;15.90;;;;;;;;;;5032908;28;20036;-59
2023/05/16 08:28:09;;;;;;;27.00;15.20;;;;;;;;;;5043881;28;20021;-58
2023/05/16 08:30:35;;;;;;;25.67;16.13;;;;;;;;;;5051021;28;20036;-60
2023/05/16 08:33:03;;;;;;;21.33;15.55;;;;;;;;;;5050755;28;20036;-59
2023/05/16 08:35:30;;;;;;;20.58;14.57;;;;;;;;;;5024903;28;20417;-60
2023/05/16 08:37:56;;;;;;;23.48;15.27;;;;;;;;;;5050501;28;20097;-59
2023/05/16 08:40:25;;;;;;;19.55;14.52;;;;;;;;;;5050737;28;20025;-59
2023/05/16 08:42:52;;;;;;;20.75;13.27;;;;;;;;;;5050669;28;20490;-68
2023/05/16 08:45:19;;;;;;;18.48;11.85;;;;;;;;;;5050310;28;20017;-61
2023/05/16 08:47:46;;;;;;;18.08;12.43;;;;;;;;;;5044146;28;20064;-60
2023/05/16 08:50:13;;;;;;;20.75;13.25;;;;;;;;;;5050743;28;20071;-62
2023/05/16 08:52:41;;;;;;;22.13;9.77;;;;;;;;;;5049568;28;20060;-60
2023/05/16 08:55:09;;;;;;;20.10;12.50;;;;;;;;;;5048361;28;20033;-64
2023/05/16 08:57:35;;;;;;;14.77;10.43;;;;;;;;;;5050454;28;20033;-61
2023/05/16 09:00:10;;;;;;;20.98;10.77;;;;;;;;;;5049501;28;20017;-58
2023/05/16 09:02:36;;;;;;;15.25;9.95;;;;;;;;;;5049754;28;20028;-66
2023/05/16 09:05:02;;;;;;;20.17;10.80;;;;;;;;;;5049281;28;20414;-67
2023/05/16 09:07:28;;;;;;;19.52;10.75;;;;;;;;;;5049512;28;20021;-64
2023/05/16 09:09:54;;;;;;;16.88;9.80;;;;;;;;;;5050436;28;20029;-66
2023/05/16 09:12:21;;;;;;;18.65;9.82;;;;;;;;;;5049947;28;20533;-60
2023/05/16 09:14:47;;;;;;;12.73;9.23;;;;;;;;;;5049817;28;20033;-64
2023/05/16 09:17:14;;;;;;;18.85;8.57;;;;;;;;;;5050084;28;20096;-58
2023/05/16 09:19:44;;;;;;;18.52;10.20;;;;;;;;;;5050006;28;20025;-61
2023/05/16 09:22:13;;;;;;;15.95;8.60;;;;;;;;;;5049719;28;20025;-64
2023/05/16 09:24:40;;;;;;;11.95;8.27;;;;;;;;;;5049779;28;20128;-58
2023/05/16 09:27:13;;;;;;;15.15;8.68;;;;;;;;;;5050023;28;20455;-64
2023/05/16 09:29:43;;;;;;;16.45;7.78;;;;;;;;;;5049501;28;20028;-62
2023/05/16 09:32:13;;;;;;;15.48;7.65;;;;;;;;;;5049637;28;20399;-65
2023/05/16 09:34:50;;;;;;;16.33;9.35;;;;;;;;;;5049695;28;20013;-63
2023/05/16 09:37:16;;;;;;;18.40;8.85;;;;;;;;;;5049916;28;20123;-62
2023/05/16 09:39:50;;;;;;;26.20;10.15;;;;;;;;;;5031575;28;20387;-65
2023/05/16 09:42:17;;;;;;;18.30;10.38;;;;;;;;;;5049529;28;20474;-63
2023/05/16 09:44:46;;;;;;;22.98;10.80;;;;;;;;;;5049987;28;20035;-59
2023/05/16 09:47:16;;;;;;;15.52;9.60;;;;;;;;;;5023748;28;20044;-61
2023/05/16 09:49:43;;;;;;;14.70;11.60;;;;;;;;;;5049757;28;20017;-64
2023/05/16 09:52:10;;;;;;;17.10;9.70;;;;;;;;;;5049550;28;20053;-60
2023/05/16 09:54:36;;;;;;;16.08;10.73;;;;;;;;;;5049295;28;20535;-64
2023/05/16 09:57:02;;;;;;;20.30;11.57;;;;;;;;;;5048915;28;20513;-59
2023/05/16 09:59:29;;;;;;;25.95;11.40;;;;;;;;;;5049128;28;20017;-60
2023/05/16 10:01:57;;;;;;;20.25;11.60;;;;;;;;;;5049325;28;20064;-60
2023/05/16 10:04:23;;;;;;;26.15;15.82;;;;;;;;;;5049398;28;20078;-69
2023/05/16 10:06:53;;;;;;;30.83;18.77;;;;;;;;;;5049122;28;20032;-70
2023/05/16 10:09:20;;;;;;;21.77;13.10;;;;;;;;;;5048892;28;20026;-61
2023/05/16 10:11:49;;;;;;;26.58;16.25;;;;;;;;;;5049655;28;20437;-66
2023/05/16 10:14:18;;;;;;;18.02;10.90;;;;;;;;;;5048961;28;20055;-64
2023/05/16 10:16:47;;;;;;;18.20;9.75;;;;;;;;;;5049419;28;20040;-63
2023/05/16 10:19:13;;;;;;;14.60;9.57;;;;;;;;;;5035918;28;20047;-58
2023/05/16 10:21:42;;;;;;;14.30;9.77;;;;;;;;;;5049099;28;20031;-63
2023/05/16 10:24:10;;;;;;;14.80;9.57;;;;;;;;;;5048242;28;20060;-60
2023/05/16 10:26:36;;;;;;;23.55;9.13;;;;;;;;;;5036762;28;20029;-64
2023/05/16 10:29:02;;;;;;;17.60;10.15;;;;;;;;;;5047821;28;20014;-63
2023/05/16 10:31:28;;;;;;;18.15;9.63;;;;;;;;;;5048595;28;20033;-66
2023/05/16 10:33:56;;;;;;;15.43;10.07;;;;;;;;;;5048419;28;20025;-67
2023/05/16 10:36:22;;;;;;;17.95;9.65;;;;;;;;;;5048879;28;20176;-60
2023/05/16 10:38:49;;;;;;;14.57;8.00;;;;;;;;;;5048157;28;20431;-63
2023/05/16 10:41:16;;;;;;;19.13;9.57;;;;;;;;;;5049099;28;20027;-60
2023/05/16 10:43:45;;;;;;;11.63;7.05;;;;;;;;;;5049002;28;20053;-62
2023/05/16 10:46:12;;;;;;;16.23;9.65;;;;;;;;;;5048114;28;20032;-61
2023/05/16 10:48:40;;;;;;;16.17;8.43;;;;;;;;;;5048761;28;20100;-62
2023/05/16 10:51:24;;;;;;;18.60;7.82;;;;;;;;;;5048976;28;20139;-65
2023/05/16 10:53:51;;;;;;;10.20;6.85;;;;;;;;;;5048482;28;20059;-65
2023/05/16 10:56:22;;;;;;;9.02;6.03;;;;;;;;;;5048158;28;20130;-59
2023/05/16 10:58:48;;;;;;;13.23;6.43;;;;;;;;;;5048459;28;20100;-63
2023/05/16 11:01:24;;;;;;;13.55;6.53;;;;;;;;;;5048510;28;20029;-63
2023/05/16 11:04:01;;;;;;;9.85;6.50;;;;;;;;;;5048212;28;20055;-67
2023/05/16 11:06:34;;;;;;;11.43;6.10;;;;;;;;;;5030387;28;20047;-60
2023/05/16 11:09:08;;;;;;;10.05;5.70;;;;;;;;;;5048474;28;20032;-69
2023/05/16 11:11:48;;;;;;;12.52;5.32;;;;;;;;;;5048694;28;20475;-59
2023/05/16 11:14:22;;;;;;;11.95;6.43;;;;;;;;;;5048505;28;20028;-62
2023/05/16 11:16:49;;;;;;;16.90;7.53;;;;;;;;;;5048205;28;20041;-59
2023/05/16 11:19:28;;;;;;;14.82;7.78;;;;;;;;;;5048499;28;20447;-58
2023/05/16 11:22:07;;;;;;;15.52;8.73;;;;;;;;;;5048808;28;20079;-59
2023/05/16 11:24:34;;;;;;;16.17;7.72;;;;;;;;;;5024433;28;20052;-58
2023/05/16 11:27:01;;;;;;;15.43;9.23;;;;;;;;;;5026733;28;20030;-63
2023/05/16 11:29:28;;;;;;;16.92;8.55;;;;;;;;;;5047759;28;20033;-63
2023/05/16 11:31:54;;;;;;;16.25;9.98;;;;;;;;;;5052191;28;20166;-69
2023/05/16 11:34:20;;;;;;;13.77;9.88;;;;;;;;;;5052029;28;20082;-62
2023/05/16 11:36:47;;;;;;;18.33;8.90;;;;;;;;;;5052060;28;20090;-60
2023/05/16 11:39:13;;;;;;;11.95;9.30;;;;;;;;;;5052004;28;20091;-61
2023/05/16 11:41:39;;;;;;;15.65;7.90;;;;;;;;;;5051427;28;20029;-61
2023/05/16 11:44:06;;;;;;;13.35;7.88;;;;;;;;;;5052011;28;20100;-64
2023/05/16 11:46:33;;;;;;;17.27;7.43;;;;;;;;;;5051638;28;20032;-59
2023/05/16 11:48:59;;;;;;;16.13;7.82;;;;;;;;;;5051420;28;20099;-63
2023/05/16 11:51:26;;;;;;;13.48;8.45;;;;;;;;;;5051986;28;20025;-67
2023/05/16 11:53:52;;;;;;;18.50;8.05;;;;;;;;;;5033869;28;20036;-60
2023/05/16 11:56:22;;;;;;;15.48;6.15;;;;;;;;;;5051394;28;20090;-60
2023/05/16 11:58:49;;;;;;;16.38;6.65;;;;;;;;;;5051657;28;20576;-68
2023/05/16 12:01:15;;;;;;;11.20;7.35;;;;;;;;;;5051370;28;20041;-59
2023/05/16 12:03:41;;;;;;;11.05;6.65;;;;;;;;;;5051320;28;20071;-66
2023/05/16 12:06:08;;;;;;;16.08;6.57;;;;;;;;;;5051521;28;20029;-61
2023/05/16 12:08:34;;;;;;;10.70;5.45;;;;;;;;;;5051751;28;20017;-63
2023/05/16 12:11:00;;;;;;;15.18;6.88;;;;;;;;;;5032939;28;20067;-68
2023/05/16 12:13:26;;;;;;;11.13;5.70;;;;;;;;;;5051486;28;20063;-62
2023/05/16 12:15:53;;;;;;;10.88;6.05;;;;;;;;;;5051085;28;20060;-62
2023/05/16 12:18:20;;;;;;;15.02;6.32;;;;;;;;;;5051157;28;20104;-63
2023/05/16 12:20:46;;;;;;;13.85;7.75;;;;;;;;;;5033464;28;20025;-68
2023/05/16 12:23:13;;;;;;;12.82;6.28;;;;;;;;;;5050532;28;20048;-63
2023/05/16 12:25:44;;;;;;;13.02;6.13;;;;;;;;;;5051272;28;20025;-64
2023/05/16 12:28:11;;;;;;;13.20;7.00;;;;;;;;;;5050950;28;20021;-65
2023/05/16 12:30:40;;;;;;;10.70;5.82;;;;;;;;;;5051206;28;20114;-59
2023/05/16 12:33:10;;;;;;;8.68;5.47;;;;;;;;;;5050886;28;20017;-63
2023/05/16 12:35:40;;;;;;;12.13;5.40;;;;;;;;;;5038922;28;20044;-58
2023/05/16 12:38:11;;;;;;;11.00;6.28;;;;;;;;;;5050429;28;20093;-66
2023/05/16 12:40:38;;;;;;;12.20;5.68;;;;;;;;;;5050831;28;20021;-60
2023/05/16 12:43:04;;;;;;;11.63;5.30;;;;;;;;;;5050719;28;20036;-60
2023/05/16 12:45:32;;;;;;;11.82;6.25;;;;;;;;;;5050406;28;20104;-64
2023/05/16 12:48:05;;;;;;;11.40;5.75;;;;;;;;;;5050428;28;20017;-64
2023/05/16 12:50:33;;;;;;;11.10;5.95;;;;;;;;;;5038178;28;20021;-66
2023/05/16 12:53:00;;;;;;;11.27;5.38;;;;;;;;;;5049961;28;20029;-61
2023/05/16 12:55:26;;;;;;;12.15;5.22;;;;;;;;;;5050516;28;20029;-60
2023/05/16 12:57:55;;;;;;;10.68;5.13;;;;;;;;;;5050384;28;20501;-62
2023/05/16 13:00:22;;;;;;;10.57;5.47;;;;;;;;;;5050213;28;20017;-58
2023/05/16 13:02:48;;;;;;;9.55;4.95;;;;;;;;;;5032334;28;20507;-66
2023/05/16 13:05:16;;;;;;;14.32;5.82;;;;;;;;;;5032394;28;20025;-58
2023/05/16 13:07:42;;;;;;;19.45;6.45;;;;;;;;;;5050127;28;20020;-63
2023/05/16 13:10:12;;;;;;;13.32;6.68;;;;;;;;;;5050186;28;20471;-60
2023/05/16 13:12:40;;;;;;;13.57;7.13;;;;;;;;;;5050422;28;20033;-59
2023/05/16 13:15:07;;;;;;;11.85;5.47;;;;;;;;;;5050392;28;20029;-69
2023/05/16 13:17:34;;;;;;;15.05;5.90;;;;;;;;;;5050051;28;20091;-59
2023/05/16 13:20:00;;;;;;;13.57;5.85;;;;;;;;;;5050180;28;20090;-59
2023/05/16 13:22:26;;;;;;;13.35;5.30;;;;;;;;;;5049791;28;20021;-71
2023/05/16 13:24:52;;;;;;;12.15;5.47;;;;;;;;;;5038967;28;20054;-58
2023/05/16 13:27:18;;;;;;;13.00;5.82;;;;;;;;;;5047326;28;20017;-58
2023/05/16 13:29:44;;;;;;;13.00;6.03;;;;;;;;;;5049613;28;20032;-59
2023/05/16 13:32:11;;;;;;;13.82;5.95;;;;;;;;;;5049639;28;20028;-69
2023/05/16 13:34:37;;;;;;;20.52;6.90;;;;;;;;;;5049842;28;20044;-59
2023/05/16 13:37:03;;;;;;;10.98;5.85;;;;;;;;;;5049887;28;20076;-69
2023/05/16 13:39:29;;;;;;;14.32;6.97;;;;;;;;;;5049428;28;20459;-60
2023/05/16 13:41:55;;;;;;;11.20;5.40;;;;;;;;;;5049781;28;20024;-59
2023/05/16 13:44:21;;;;;;;14.68;6.25;;;;;;;;;;5049646;28;20111;-59
2023/05/16 13:46:47;;;;;;;13.98;6.78;;;;;;;;;;5049556;28;20417;-59
2023/05/16 13:49:13;;;;;;;13.38;6.15;;;;;;;;;;5048861;28;20029;-62
2023/05/16 13:51:41;;;;;;;22.15;6.53;;;;;;;;;;5049213;28;20071;-58
2023/05/16 13:54:07;;;;;;;10.90;6.03;;;;;;;;;;5049094;28;20029;-57
2023/05/16 13:56:33;;;;;;;15.10;5.95;;;;;;;;;;5049520;28;20033;-57
2023/05/16 13:58:59;;;;;;;12.88;6.10;;;;;;;;;;5049413;28;20025;-57
2023/05/16 14:01:26;;;;;;;10.63;5.75;;;;;;;;;;5049274;28;20041;-57
2023/05/16 14:03:53;;;;;;;15.30;6.85;;;;;;;;;;5049231;28;20029;-57
2023/05/16 14:06:19;;;;;;;16.60;6.10;;;;;;;;;;5049004;28;20371;-68
2023/05/16 14:08:45;;;;;;;14.80;6.88;;;;;;;;;;5049462;28;20103;-68
2023/05/16 14:11:11;;;;;;;17.55;6.55;;;;;;;;;;5048947;28;20467;-67
2023/05/16 14:13:39;;;;;;;12.05;6.35;;;;;;;;;;5048828;28;20029;-58
2023/05/16 14:16:05;;;;;;;13.68;6.70;;;;;;;;;;5048778;28;20487;-58
2023/05/16 14:18:31;;;;;;;15.15;6.25;;;;;;;;;;5048774;28;20390;-60
2023/05/16 14:20:58;;;;;;;16.73;6.43;;;;;;;;;;5048621;28;20021;-66